Time;durP1;ratioP1;P1;durP2;ratioP2;P2;SDS_P1;SDS_P2;PMS_P1;PMS_P2;Temp;Humidity;BMP_temperature;BMP_pressure;BME280_temperature;BME280_humidity;BME280_pressure;Samples;Min_cycle;Max_cycle;Signal;HPM_P1;HPM_P2
2023/10/09 00:04:23;;;;;;;10.80;10.40;;;13.10;99.90;;;;;;5044751;28;20224;-81
2023/10/09 00:06:59;;;;;;;10.90;10.50;;;13.10;99.90;;;;;;5047672;28;20242;-81
2023/10/09 00:09:32;;;;;;;11.23;10.83;;;13.10;99.90;;;;;;5047304;28;20231;-82
2023/10/09 00:12:01;;;;;;;10.90;10.50;;;13.20;99.90;;;;;;5047367;28;20235;-82
2023/10/09 00:14:33;;;;;;;11.00;10.60;;;13.10;99.90;;;;;;5046777;28;20288;-83
2023/10/09 00:17:17;;;;;;;11.00;10.60;;;13.10;99.90;;;;;;5052191;28;20215;-82
2023/10/09 00:19:47;;;;;;;10.97;10.57;;;13.20;99.90;;;;;;5044379;28;20227;-81
2023/10/09 00:22:28;;;;;;;11.10;10.70;;;13.10;99.90;;;;;;5042035;28;20242;-81
2023/10/09 00:27:42;;;;;;;11.10;10.70;;;13.20;99.90;;;;;;5045688;28;20214;-82
2023/10/09 00:30:15;;;;;;;10.97;10.57;;;13.20;99.90;;;;;;5047414;28;20228;-82
2023/10/09 00:35:46;;;;;;;10.90;10.50;;;13.20;99.90;;;;;;5046249;28;20242;-81
2023/10/09 00:41:04;;;;;;;10.87;10.47;;;13.20;99.90;;;;;;5047107;28;20274;-82
2023/10/09 00:43:35;;;;;;;10.90;10.50;;;13.10;99.90;;;;;;5046559;28;20254;-82
2023/10/09 00:46:04;;;;;;;11.10;10.70;;;13.10;99.90;;;;;;5046832;28;20302;-81
2023/10/09 00:48:37;;;;;;;10.93;10.53;;;13.10;99.90;;;;;;5047562;28;20289;-82
2023/10/09 00:54:07;;;;;;;10.83;10.43;;;13.10;99.90;;;;;;5046889;28;20238;-81
2023/10/09 00:56:57;;;;;;;11.10;10.70;;;13.10;99.90;;;;;;5047560;28;20235;-83
2023/10/09 01:02:09;;;;;;;11.00;10.60;;;13.10;99.90;;;;;;5046206;28;20227;-82
2023/10/09 01:04:43;;;;;;;10.83;10.43;;;13.10;99.90;;;;;;5046422;28;20250;-81
2023/10/09 01:07:15;;;;;;;11.00;10.60;;;13.10;99.90;;;;;;5045320;28;20263;-82
2023/10/09 01:10:10;;;;;;;11.00;10.60;;;13.10;99.90;;;;;;5046582;28;20234;-81
2023/10/09 01:15:35;;;;;;;11.07;10.67;;;13.10;99.90;;;;;;5046062;28;20227;-82
2023/10/09 01:18:07;;;;;;;10.90;10.50;;;13.00;99.90;;;;;;5046215;28;20234;-82
2023/10/09 01:20:41;;;;;;;11.10;10.70;;;13.00;99.90;;;;;;5046134;28;20219;-82
2023/10/09 01:23:15;;;;;;;10.90;10.50;;;13.10;99.90;;;;;;5046758;28;20232;-82
2023/10/09 01:25:49;;;;;;;10.90;10.50;;;13.10;99.90;;;;;;5046370;28;20219;-82
2023/10/09 01:28:17;;;;;;;10.77;10.43;;;13.10;99.90;;;;;;5045283;28;20301;-82
2023/10/09 01:30:47;;;;;;;11.00;10.60;;;13.10;99.90;;;;;;5045368;28;20255;-82
2023/10/09 01:38:41;;;;;;;11.00;10.60;;;13.20;99.90;;;;;;5048354;28;20289;-82
2023/10/09 01:44:00;;;;;;;11.00;10.60;;;13.20;99.90;;;;;;5051206;28;20259;-82
2023/10/09 01:49:17;;;;;;;11.00;10.60;;;13.10;99.90;;;;;;5055680;28;20239;-82
2023/10/09 01:57:23;;;;;;;10.70;10.40;;;13.10;99.90;;;;;;5056751;28;20238;-82
2023/10/09 01:59:53;;;;;;;10.97;10.57;;;13.00;99.90;;;;;;5055381;28;20234;-82
2023/10/09 02:02:33;;;;;;;10.90;10.50;;;13.00;99.90;;;;;;5052382;28;20223;-82
2023/10/09 02:05:24;;;;;;;10.90;10.50;;;13.00;99.90;;;;;;5054484;28;20266;-82
2023/10/09 02:13:34;;;;;;;10.47;10.17;;;13.00;99.90;;;;;;5051314;28;20218;-82
2023/10/09 02:16:13;;;;;;;10.70;10.40;;;13.00;99.90;;;;;;5031045;28;20240;-82
2023/10/09 02:18:52;;;;;;;10.50;10.20;;;13.00;99.90;;;;;;5050446;28;20289;-82
2023/10/09 02:24:08;;;;;;;10.60;10.30;;;13.00;99.90;;;;;;5049769;28;20298;-82
2023/10/09 02:27:06;;;;;;;11.00;10.60;;;13.00;99.90;;;;;;5049880;28;20225;-82
2023/10/09 02:29:35;;;;;;;10.70;10.40;;;13.00;99.90;;;;;;5057403;28;20237;-82
2023/10/09 02:32:13;;;;;;;10.90;10.50;;;12.90;99.90;;;;;;5055774;28;20235;-82
2023/10/09 02:34:41;;;;;;;10.90;10.50;;;13.00;99.90;;;;;;5048162;28;20268;-82
2023/10/09 02:37:12;;;;;;;10.57;10.27;;;13.00;99.90;;;;;;5053448;28;20227;-82
2023/10/09 02:39:48;;;;;;;10.90;10.50;;;13.00;99.90;;;;;;5051248;28;20252;-82
2023/10/09 02:45:16;;;;;;;10.60;10.30;;;13.00;99.90;;;;;;5050038;28;21045;-82
2023/10/09 02:47:48;;;;;;;10.40;10.10;;;13.00;99.90;;;;;;5049328;28;20247;-82
2023/10/09 02:53:09;;;;;;;10.50;10.20;;;13.10;99.90;;;;;;5048601;28;20232;-82
2023/10/09 02:58:32;;;;;;;10.60;10.30;;;13.10;99.90;;;;;;5047973;28;20235;-82
2023/10/09 03:01:00;;;;;;;10.30;10.00;;;13.10;99.90;;;;;;5048837;28;20232;-82
2023/10/09 03:03:39;;;;;;;10.47;10.17;;;13.10;99.90;;;;;;5048360;28;20243;-82
2023/10/09 03:06:11;;;;;;;10.60;10.30;;;13.10;99.90;;;;;;5048265;28;20236;-82
2023/10/09 03:08:38;;;;;;;10.50;10.20;;;13.20;99.90;;;;;;5048335;28;20246;-82
2023/10/09 03:11:12;;;;;;;10.60;10.30;;;13.20;99.90;;;;;;5048101;28;20236;-82
2023/10/09 03:13:45;;;;;;;10.40;10.10;;;13.20;99.90;;;;;;5047754;28;20227;-83
2023/10/09 03:16:19;;;;;;;10.50;10.20;;;13.20;99.90;;;;;;5047463;28;20239;-82
2023/10/09 03:21:30;;;;;;;10.23;9.93;;;13.20;99.90;;;;;;5048541;28;20334;-82
2023/10/09 03:26:38;;;;;;;10.23;9.93;;;13.20;99.90;;;;;;5053031;28;20231;-83
2023/10/09 03:29:10;;;;;;;10.23;9.93;;;13.20;99.90;;;;;;5053833;28;20236;-82
2023/10/09 03:31:38;;;;;;;10.30;10.00;;;13.10;99.90;;;;;;5051034;28;20237;-82
2023/10/09 03:34:08;;;;;;;10.10;9.80;;;13.20;99.90;;;;;;5048237;28;20223;-83
2023/10/09 03:36:38;;;;;;;10.23;9.93;;;13.10;99.90;;;;;;5047968;28;20279;-82
2023/10/09 03:39:18;;;;;;;10.20;9.90;;;13.10;99.90;;;;;;5051557;28;20237;-82
2023/10/09 03:41:47;;;;;;;10.20;9.90;;;13.10;99.90;;;;;;5047312;28;20243;-81
2023/10/09 03:44:18;;;;;;;10.20;9.90;;;13.10;99.90;;;;;;5048399;28;20243;-81
2023/10/09 03:46:46;;;;;;;10.30;10.00;;;13.10;99.90;;;;;;5047796;28;20208;-82
2023/10/09 03:49:21;;;;;;;10.60;10.30;;;13.10;99.90;;;;;;5049175;28;20235;-83
2023/10/09 03:51:50;;;;;;;10.57;10.27;;;13.10;99.90;;;;;;5047697;28;20261;-81
2023/10/09 03:56:58;;;;;;;10.10;9.80;;;13.00;99.90;;;;;;5047452;28;20227;-82
2023/10/09 04:02:15;;;;;;;10.20;9.90;;;13.00;99.90;;;;;;5045978;28;20224;-83
2023/10/09 04:04:46;;;;;;;10.20;9.90;;;13.00;99.90;;;;;;5047029;28;20258;-82
2023/10/09 04:07:16;;;;;;;9.93;9.63;;;12.90;99.90;;;;;;5047745;28;20230;-83
2023/10/09 04:09:47;;;;;;;10.10;9.80;;;12.90;99.90;;;;;;5063595;28;20241;-83
2023/10/09 04:12:22;;;;;;;10.10;9.80;;;12.90;99.90;;;;;;5055215;28;20238;-83
2023/10/09 04:17:42;;;;;;;10.23;9.93;;;12.90;99.90;;;;;;5060974;28;20223;-83
2023/10/09 04:23:05;;;;;;;10.07;9.77;;;12.90;99.90;;;;;;5017275;28;20215;-84
2023/10/09 04:25:41;;;;;;;10.00;9.70;;;12.90;99.90;;;;;;5050913;28;20282;-83
2023/10/09 04:28:18;;;;;;;10.17;9.87;;;12.90;99.90;;;;;;5047172;28;20298;-83
2023/10/09 04:31:02;;;;;;;10.10;9.80;;;12.80;99.90;;;;;;5047757;28;20724;-83
2023/10/09 04:33:42;;;;;;;10.13;9.83;;;12.80;99.90;;;;;;5047342;28;20251;-83
2023/10/09 04:36:28;;;;;;;10.10;9.80;;;12.80;99.90;;;;;;5047486;28;20242;-84
2023/10/09 04:41:52;;;;;;;9.97;9.67;;;12.70;99.90;;;;;;5046661;28;20227;-84
2023/10/09 04:44:18;;;;;;;10.00;9.70;;;12.70;99.90;;;;;;5046337;28;20227;-83
2023/10/09 04:49:49;;;;;;;10.07;9.77;;;12.60;99.90;;;;;;5026800;28;20219;-83
2023/10/09 04:52:30;;;;;;;9.83;9.53;;;12.60;99.90;;;;;;5047061;28;20249;-83
2023/10/09 04:58:00;;;;;;;9.70;9.40;;;12.50;99.90;;;;;;5046965;28;20227;-83
2023/10/09 05:06:21;;;;;;;9.83;9.53;;;12.20;99.90;;;;;;5046463;28;20281;-83
2023/10/09 05:08:49;;;;;;;9.90;9.60;;;12.20;99.90;;;;;;5045449;28;20239;-83
2023/10/09 05:11:34;;;;;;;10.20;9.90;;;12.20;99.90;;;;;;5046495;28;20323;-83
2023/10/09 05:14:14;;;;;;;10.27;9.97;;;12.10;99.90;;;;;;5048147;28;20228;-84
2023/10/09 05:16:54;;;;;;;10.40;10.10;;;12.10;99.90;;;;;;5047757;28;20278;-83
2023/10/09 05:19:54;;;;;;;10.40;10.10;;;12.00;99.90;;;;;;5046607;28;20239;-83
2023/10/09 05:22:36;;;;;;;10.47;10.17;;;12.00;99.90;;;;;;5036539;28;20228;-84
2023/10/09 05:25:53;;;;;;;10.60;10.30;;;11.90;99.90;;;;;;5028896;28;20220;-83
2023/10/09 05:30:55;;;;;;;10.70;10.40;;;11.90;99.90;;;;;;5026253;28;20212;-83
2023/10/09 05:33:33;;;;;;;10.80;10.50;;;11.90;99.90;;;;;;5026177;28;20221;-83
2023/10/09 05:36:31;;;;;;;10.43;10.13;;;11.90;99.90;;;;;;5026122;28;20232;-83
2023/10/09 05:50:33;;;;;;;10.20;9.90;;;12.00;99.90;;;;;;5025082;28;20298;-83
2023/10/09 05:53:05;;;;;;;10.10;9.80;;;12.00;99.90;;;;;;5026915;28;20228;-83
2023/10/09 06:03:53;;;;;;;9.77;9.47;;;11.90;99.90;;;;;;5025637;28;20224;-85
2023/10/09 06:06:33;;;;;;;9.60;9.30;;;11.90;99.90;;;;;;5026451;28;20284;-85
2023/10/09 06:15:30;;;;;;;9.57;9.27;;;11.90;99.90;;;;;;5162265;27;1285815;-85
2023/10/09 06:18:25;;;;;;;9.53;9.23;;;11.90;99.90;;;;;;5178047;27;20218;-85
2023/10/09 06:28:49;;;;;;;9.40;9.10;;;12.00;99.90;;;;;;5168141;27;20227;-85
2023/10/09 06:31:46;;;;;;;9.80;9.50;;;12.00;99.90;;;;;;5167613;27;20235;-85
2023/10/09 06:34:16;;;;;;;9.70;9.40;;;12.10;99.90;;;;;;5165298;27;20228;-85
2023/10/09 06:36:52;;;;;;;9.70;9.40;;;12.10;99.90;;;;;;5165101;27;20271;-85
2023/10/09 06:42:30;;;;;;;9.50;9.20;;;12.30;99.90;;;;;;5166055;27;20204;-85
2023/10/09 06:44:57;;;;;;;9.27;8.97;;;12.40;99.90;;;;;;5165017;27;20223;-84
2023/10/09 06:47:26;;;;;;;9.50;9.20;;;12.50;99.90;;;;;;5165413;27;20228;-84
2023/10/09 06:58:01;;;;;;;9.20;8.90;;;12.90;99.90;;;;;;5164463;27;20233;-85
2023/10/09 07:03:19;;;;;;;9.40;9.10;;;13.10;99.90;;;;;;5165863;27;20191;-82
2023/10/09 07:06:00;;;;;;;9.30;9.00;;;13.20;99.90;;;;;;5165397;27;20212;-84
2023/10/09 07:08:36;;;;;;;9.50;9.20;;;13.30;99.90;;;;;;5165105;27;20235;-85
2023/10/09 07:13:58;;;;;;;9.17;8.87;;;13.60;99.90;;;;;;5161727;27;20253;-83
2023/10/09 07:16:28;;;;;;;9.17;8.87;;;13.80;99.90;;;;;;5163099;27;20232;-84
2023/10/09 07:19:09;;;;;;;9.60;9.30;;;13.90;99.90;;;;;;5155685;27;20227;-84
2023/10/09 07:24:24;;;;;;;9.77;9.48;;;14.00;99.90;;;;;;5161140;27;20239;-83
2023/10/09 07:29:47;;;;;;;10.35;10.05;;;14.30;99.90;;;;;;5146792;27;20231;-84
2023/10/09 07:32:20;;;;;;;10.48;10.18;;;14.50;99.90;;;;;;5145901;27;20232;-83
2023/10/09 07:34:54;;;;;;;10.40;10.10;;;14.70;99.90;;;;;;5138472;27;20232;-84
2023/10/09 07:37:23;;;;;;;10.45;10.15;;;14.90;99.90;;;;;;5146526;27;20658;-84
2023/10/09 07:39:57;;;;;;;10.50;10.20;;;15.10;99.90;;;;;;5139340;27;20297;-85
2023/10/09 07:50:48;;;;;;;10.27;9.98;;;15.90;99.90;;;;;;5152597;27;20232;-84
2023/10/09 07:58:49;;;;;;;10.10;9.80;;;16.60;99.90;;;;;;5140433;27;20228;-82
2023/10/09 08:01:22;;;;;;;10.00;9.70;;;16.70;99.90;;;;;;5144395;27;20254;-82
2023/10/09 08:03:57;;;;;;;10.10;9.80;;;16.80;99.90;;;;;;5141905;27;20228;-83
2023/10/09 08:06:44;;;;;;;10.10;9.80;;;16.90;99.90;;;;;;5141504;27;20239;-83
2023/10/09 08:09:45;;;;;;;9.95;9.65;;;17.00;99.90;;;;;;5142682;27;20232;-82
2023/10/09 08:12:39;;;;;;;10.30;10.00;;;17.10;99.90;;;;;;5148664;27;20304;-83
2023/10/09 08:15:20;;;;;;;10.32;10.02;;;17.10;99.90;;;;;;5147273;27;20327;-83
2023/10/09 08:17:50;;;;;;;10.48;10.18;;;17.30;99.90;;;;;;5143066;27;20234;-83
2023/10/09 08:20:24;;;;;;;10.80;10.50;;;17.40;99.90;;;;;;5152223;27;20216;-83
2023/10/09 08:22:55;;;;;;;10.50;10.20;;;17.50;99.90;;;;;;5141022;27;20289;-83
2023/10/09 08:37:13;;;;;;;10.60;10.30;;;18.30;99.90;;;;;;5106018;27;20236;-82
2023/10/09 08:39:42;;;;;;;10.70;10.40;;;18.50;99.90;;;;;;5122803;28;20310;-83
2023/10/09 08:42:13;;;;;;;10.57;10.27;;;18.70;99.90;;;;;;5116601;27;20240;-83
2023/10/09 08:44:44;;;;;;;10.75;10.45;;;19.00;99.90;;;;;;5109438;28;20260;-82
2023/10/09 08:47:11;;;;;;;10.90;10.60;;;19.20;99.90;;;;;;5107158;28;20260;-82
2023/10/09 08:49:42;;;;;;;10.50;10.20;;;19.40;99.90;;;;;;5113196;28;20220;-82
2023/10/09 08:52:10;;;;;;;10.70;10.40;;;19.60;99.90;;;;;;5104917;28;20281;-83
2023/10/09 08:54:37;;;;;;;10.50;10.20;;;19.60;99.90;;;;;;5105867;28;20225;-82
2023/10/09 08:57:09;;;;;;;10.60;10.30;;;19.80;99.90;;;;;;5109427;28;20232;-82
2023/10/09 08:59:44;;;;;;;10.70;10.40;;;19.90;99.90;;;;;;5115773;27;20289;-83
2023/10/09 09:02:24;;;;;;;10.70;10.40;;;20.10;99.90;;;;;;5109519;28;20208;-83
2023/10/09 09:04:54;;;;;;;10.57;10.27;;;20.40;99.90;;;;;;5121659;27;20224;-83
2023/10/09 09:07:31;;;;;;;10.55;10.25;;;20.60;99.90;;;;;;5102902;28;20221;-82
2023/10/09 09:10:03;;;;;;;10.48;10.18;;;20.70;99.90;;;;;;5115334;28;20231;-83
2023/10/09 09:12:37;;;;;;;10.77;10.48;;;20.90;99.90;;;;;;5114792;27;20236;-83
2023/10/09 09:15:09;;;;;;;10.50;10.20;;;21.10;99.90;;;;;;5114362;28;20316;-83
2023/10/09 09:17:41;;;;;;;10.50;10.20;;;21.20;99.90;;;;;;5118358;28;20290;-85
2023/10/09 09:23:12;;;;;;;10.60;10.30;;;21.10;99.90;;;;;;5120121;27;20231;-85
2023/10/09 09:25:59;;;;;;;10.32;10.02;;;21.10;99.90;;;;;;5120661;28;20268;-82
2023/10/09 09:28:32;;;;;;;10.32;10.02;;;20.90;99.90;;;;;;5123739;28;20240;-81
2023/10/09 09:31:22;;;;;;;10.50;10.20;;;20.70;99.90;;;;;;5122311;28;20317;-83
2023/10/09 09:33:58;;;;;;;10.60;10.30;;;20.50;99.90;;;;;;5122292;27;20243;-82
2023/10/09 09:36:33;;;;;;;10.35;10.05;;;20.50;99.90;;;;;;5122827;28;20228;-82
2023/10/09 09:39:01;;;;;;;10.27;9.98;;;20.30;99.90;;;;;;5123570;28;20263;-82
2023/10/09 09:41:33;;;;;;;10.50;10.20;;;20.30;99.90;;;;;;5124998;27;20239;-82
2023/10/09 09:44:01;;;;;;;10.30;10.00;;;20.30;99.90;;;;;;5121321;28;20231;-82
2023/10/09 09:46:33;;;;;;;10.25;9.95;;;20.20;99.90;;;;;;5110019;28;20230;-81
2023/10/09 09:49:16;;;;;;;10.32;10.02;;;20.20;99.90;;;;;;5107793;28;20237;-80
2023/10/09 09:51:50;;;;;;;10.30;10.00;;;20.20;99.90;;;;;;5106026;28;20210;-81
2023/10/09 09:54:22;;;;;;;10.30;10.00;;;20.20;99.90;;;;;;5104841;28;20268;-81
2023/10/09 09:56:54;;;;;;;10.40;10.10;;;20.30;99.90;;;;;;5105307;28;20229;-80
2023/10/09 09:59:28;;;;;;;10.70;10.40;;;20.30;99.90;;;;;;5105159;28;20249;-80
2023/10/09 10:02:06;;;;;;;10.20;9.90;;;20.40;99.90;;;;;;5106036;28;20224;-81
2023/10/09 10:04:39;;;;;;;10.23;9.93;;;20.40;99.90;;;;;;5105952;28;20225;-82
2023/10/09 10:07:21;;;;;;;10.45;10.15;;;20.40;99.90;;;;;;5105356;28;20229;-82
2023/10/09 10:09:54;;;;;;;10.43;10.13;;;20.50;99.90;;;;;;5105390;28;20328;-81
2023/10/09 10:13:00;;;;;;;10.40;10.10;;;20.60;99.90;;;;;;5105479;28;20268;-81
2023/10/09 10:16:08;;;;;;;10.50;10.20;;;20.70;99.90;;;;;;5105254;28;20233;-82
2023/10/09 10:18:59;;;;;;;10.43;10.13;;;20.90;99.90;;;;;;5105080;28;20234;-81
2023/10/09 10:24:54;;;;;;;10.50;10.20;;;20.90;99.90;;;;;;5104997;28;20285;-82
2023/10/09 10:27:36;;;;;;;10.50;10.20;;;20.90;99.90;;;;;;5104757;28;20239;-82
2023/10/09 10:30:36;;;;;;;10.77;10.48;;;20.80;99.90;;;;;;5105111;28;20233;-81
2023/10/09 10:33:25;;;;;;;10.40;10.10;;;20.80;99.90;;;;;;5105011;28;21045;-81
2023/10/09 10:35:55;;;;;;;10.35;10.05;;;20.80;99.90;;;;;;5103929;28;20256;-81
2023/10/09 10:38:42;;;;;;;10.50;10.20;;;20.80;99.90;;;;;;5103735;28;20217;-81
2023/10/09 10:41:12;;;;;;;10.10;9.80;;;20.80;99.90;;;;;;5105404;28;20289;-81
2023/10/09 10:43:59;;;;;;;10.30;10.00;;;20.70;99.90;;;;;;5104992;28;20230;-82
2023/10/09 10:46:38;;;;;;;10.00;9.70;;;20.60;99.90;;;;;;5104520;28;20307;-81
2023/10/09 10:49:20;;;;;;;10.45;10.15;;;20.50;99.90;;;;;;5104954;28;20225;-81
2023/10/09 10:52:01;;;;;;;10.38;10.07;;;20.40;99.90;;;;;;5104778;28;20295;-82
2023/10/09 10:54:47;;;;;;;10.35;10.05;;;20.30;99.90;;;;;;5104530;28;20233;-82
2023/10/09 10:57:28;;;;;;;10.35;10.05;;;20.30;99.90;;;;;;5106185;28;20229;-81
2023/10/09 11:00:14;;;;;;;10.18;9.88;;;20.10;99.90;;;;;;5106001;28;20239;-82
2023/10/09 11:02:47;;;;;;;10.00;9.70;;;20.10;99.90;;;;;;5104728;28;20544;-81
2023/10/09 11:05:26;;;;;;;10.20;9.90;;;20.00;99.90;;;;;;5094788;28;20717;-81
2023/10/09 11:08:00;;;;;;;10.10;9.80;;;19.80;99.90;;;;;;5103358;28;20229;-81
2023/10/09 11:10:31;;;;;;;9.90;9.60;;;19.80;99.90;;;;;;5104150;28;20209;-80
2023/10/09 11:15:55;;;;;;;10.05;9.75;;;19.80;99.90;;;;;;5089149;28;20260;-80
2023/10/09 11:18:25;;;;;;;9.90;9.60;;;19.80;99.90;;;;;;5105057;28;20280;-81
2023/10/09 11:21:22;;;;;;;9.70;9.40;;;19.90;99.90;;;;;;5105562;28;20224;-80
2023/10/09 11:23:53;;;;;;;9.75;9.45;;;20.00;99.90;;;;;;5103451;28;20229;-81
2023/10/09 11:26:25;;;;;;;9.70;9.40;;;20.20;99.90;;;;;;5105187;28;20264;-81
2023/10/09 11:29:16;;;;;;;9.27;8.98;;;20.40;99.90;;;;;;5104233;28;20269;-81
2023/10/09 11:31:59;;;;;;;9.40;9.10;;;20.70;99.90;;;;;;5104258;28;20236;-80
2023/10/09 11:34:31;;;;;;;10.00;9.70;;;20.80;99.90;;;;;;5103242;28;20241;-82
2023/10/09 11:36:59;;;;;;;10.00;9.70;;;20.70;99.90;;;;;;5104223;28;20240;-80
2023/10/09 11:39:36;;;;;;;9.90;9.60;;;20.70;99.90;;;;;;5103927;28;20226;-80
2023/10/09 11:42:05;;;;;;;9.90;9.60;;;20.50;99.90;;;;;;5106483;28;20272;-82
2023/10/09 11:44:46;;;;;;;9.85;9.55;;;20.40;99.90;;;;;;5109467;28;20233;-80
2023/10/09 11:47:32;;;;;;;9.80;9.50;;;20.40;99.90;;;;;;5106399;28;20236;-82
2023/10/09 11:50:12;;;;;;;10.10;9.80;;;20.40;99.90;;;;;;5104985;28;20229;-81
2023/10/09 11:53:08;;;;;;;10.10;9.80;;;20.40;99.90;;;;;;5104358;28;20217;-82
2023/10/09 11:55:36;;;;;;;10.05;9.75;;;20.50;99.90;;;;;;5104531;28;20225;-81
2023/10/09 11:58:04;;;;;;;10.43;10.13;;;20.60;99.90;;;;;;5104345;28;20244;-81
2023/10/09 12:00:45;;;;;;;10.40;10.10;;;20.60;99.90;;;;;;5104280;28;20229;-81
2023/10/09 12:03:14;;;;;;;10.40;10.10;;;20.40;99.90;;;;;;5105042;28;20236;-82
2023/10/09 12:05:44;;;;;;;10.18;9.88;;;20.30;99.90;;;;;;5104006;28;20237;-81
2023/10/09 12:08:22;;;;;;;10.10;9.80;;;20.10;99.90;;;;;;5103903;28;20292;-81
2023/10/09 12:10:49;;;;;;;10.20;9.90;;;20.00;99.90;;;;;;5105791;28;20217;-81
2023/10/09 12:13:19;;;;;;;10.10;9.80;;;19.90;99.90;;;;;;5104422;28;20225;-81
2023/10/09 12:15:58;;;;;;;10.10;9.80;;;19.90;99.90;;;;;;5105246;28;20244;-82
2023/10/09 12:18:28;;;;;;;10.30;10.00;;;20.00;99.90;;;;;;5105793;28;20300;-82
2023/10/09 12:21:02;;;;;;;10.10;9.80;;;20.00;99.90;;;;;;5105649;28;20229;-81
2023/10/09 12:23:35;;;;;;;10.20;9.90;;;19.90;99.90;;;;;;5102226;28;20237;-81
2023/10/09 12:26:03;;;;;;;10.23;9.93;;;19.80;99.90;;;;;;5103925;28;20295;-82
2023/10/09 12:28:33;;;;;;;10.35;10.05;;;19.80;99.90;;;;;;5103627;28;20233;-81
2023/10/09 12:31:03;;;;;;;10.50;10.20;;;19.70;99.90;;;;;;5103229;28;20289;-81
2023/10/09 12:33:31;;;;;;;10.32;10.02;;;19.70;99.90;;;;;;5091921;28;20235;-80
2023/10/09 12:36:04;;;;;;;10.30;10.00;;;19.80;99.90;;;;;;5100181;28;20234;-81
2023/10/09 12:38:33;;;;;;;10.10;9.80;;;19.70;99.90;;;;;;5083414;28;20308;-83
2023/10/09 12:51:46;;;;;;;10.30;10.00;;;20.00;99.90;;;;;;4847558;29;20265;-83
2023/10/09 13:03:38;;;;;;;9.90;9.60;;;20.20;99.90;;;;;;5083785;28;20222;-83
2023/10/09 13:14:58;;;;;;;10.05;9.75;;;20.20;99.90;;;;;;4943654;29;20234;-84
2023/10/09 13:21:31;;;;;;;10.00;9.70;;;20.20;99.90;;;;;;4985626;28;20209;-85
2023/10/09 13:24:02;;;;;;;9.90;9.60;;;20.30;99.90;;;;;;5001534;28;20247;-81
2023/10/09 13:26:37;;;;;;;10.13;9.82;;;20.30;99.90;;;;;;5088899;28;20238;-84
2023/10/09 13:29:09;;;;;;;9.93;9.63;;;20.30;99.90;;;;;;5088145;28;20252;-83
2023/10/09 13:31:46;;;;;;;9.60;9.30;;;20.30;99.90;;;;;;5088798;28;20226;-81
2023/10/09 13:34:16;;;;;;;9.50;9.20;;;20.40;99.90;;;;;;5088098;28;20230;-82
2023/10/09 13:36:49;;;;;;;9.63;9.32;;;20.40;99.90;;;;;;5089899;28;20285;-82
2023/10/09 13:39:24;;;;;;;9.82;9.52;;;20.40;99.90;;;;;;5089461;28;20234;-81
2023/10/09 13:41:59;;;;;;;9.98;9.68;;;20.50;99.90;;;;;;5088216;28;20239;-81
2023/10/09 13:44:28;;;;;;;9.90;9.60;;;20.50;99.90;;;;;;5088013;28;20217;-82
2023/10/09 13:46:57;;;;;;;9.90;9.60;;;20.60;99.90;;;;;;5090428;28;20230;-83
2023/10/09 13:49:30;;;;;;;9.60;9.30;;;20.70;99.90;;;;;;5087772;28;20237;-83
2023/10/09 13:51:59;;;;;;;9.52;9.23;;;20.80;99.90;;;;;;5088035;28;20214;-82
2023/10/09 13:57:31;;;;;;;9.75;9.45;;;21.10;99.90;;;;;;5155337;27;1387907;-82
2023/10/09 14:00:13;;;;;;;9.80;9.50;;;21.40;99.90;;;;;;5162933;27;20226;-82
2023/10/09 14:02:40;;;;;;;9.90;9.60;;;21.50;99.90;;;;;;5162671;27;20231;-81
2023/10/09 14:05:08;;;;;;;10.20;9.90;;;21.60;99.90;;;;;;5161548;27;20239;-81
2023/10/09 14:07:37;;;;;;;10.20;9.90;;;21.70;99.90;;;;;;5161186;27;20237;-80
2023/10/09 14:10:17;;;;;;;10.23;9.93;;;21.70;99.90;;;;;;5161134;27;20242;-79
2023/10/09 14:12:47;;;;;;;10.20;9.90;;;21.80;99.90;;;;;;5160645;27;20271;-79
2023/10/09 14:15:17;;;;;;;10.18;9.88;;;21.70;99.90;;;;;;5160300;27;20269;-78
2023/10/09 14:17:46;;;;;;;10.10;9.80;;;21.80;99.90;;;;;;5159936;27;20314;-77
2023/10/09 14:20:31;;;;;;;10.50;10.20;;;21.80;99.90;;;;;;5161037;27;20251;-77
2023/10/09 14:23:06;;;;;;;10.45;10.15;;;21.80;99.90;;;;;;5159188;27;20290;-78
2023/10/09 14:25:37;;;;;;;10.43;10.13;;;21.70;99.90;;;;;;5159689;27;20230;-78
2023/10/09 14:28:07;;;;;;;10.50;10.20;;;21.70;99.90;;;;;;5159234;27;20251;-78
2023/10/09 14:30:41;;;;;;;10.63;10.32;;;21.70;99.90;;;;;;5159491;27;20216;-79
2023/10/09 14:33:12;;;;;;;10.48;10.18;;;21.70;99.90;;;;;;5159365;27;20227;-78
2023/10/09 14:35:40;;;;;;;10.35;10.05;;;21.60;99.90;;;;;;5159108;27;20235;-78
2023/10/09 14:38:12;;;;;;;10.57;10.27;;;21.60;99.90;;;;;;5159254;27;20234;-79
2023/10/09 14:40:43;;;;;;;10.30;10.00;;;21.60;99.90;;;;;;5159597;27;20231;-79
2023/10/09 14:43:27;;;;;;;10.27;9.98;;;21.50;99.90;;;;;;5159878;27;20231;-81
2023/10/09 14:45:55;;;;;;;10.20;9.90;;;21.40;99.90;;;;;;5159784;27;20239;-79
2023/10/09 14:48:25;;;;;;;9.85;9.55;;;21.40;99.90;;;;;;5140157;27;20369;-79
2023/10/09 14:50:53;;;;;;;9.90;9.60;;;21.40;99.90;;;;;;5138169;27;20235;-79
2023/10/09 14:53:21;;;;;;;9.85;9.55;;;21.30;99.90;;;;;;5138644;27;20236;-79
2023/10/09 14:55:55;;;;;;;9.40;9.10;;;21.40;99.90;;;;;;5139437;27;20701;-78
2023/10/09 14:58:25;;;;;;;9.60;9.30;;;21.30;99.90;;;;;;5140272;27;20261;-78
2023/10/09 15:00:53;;;;;;;9.60;9.30;;;21.30;99.90;;;;;;5142874;27;20311;-81
2023/10/09 15:03:22;;;;;;;9.27;8.98;;;21.20;99.90;;;;;;5160967;27;20238;-79
2023/10/09 15:05:50;;;;;;;9.40;9.10;;;21.20;99.90;;;;;;5159855;27;20234;-78
2023/10/09 15:08:17;;;;;;;9.80;9.50;;;21.20;99.90;;;;;;5149004;27;20323;-78
2023/10/09 15:10:48;;;;;;;9.60;9.30;;;21.10;99.90;;;;;;5146121;27;20232;-78
2023/10/09 15:13:16;;;;;;;9.70;9.40;;;21.20;99.90;;;;;;5146233;27;20255;-79
2023/10/09 15:15:50;;;;;;;9.77;9.48;;;21.10;99.90;;;;;;5144338;27;20247;-78
2023/10/09 15:18:18;;;;;;;9.77;9.48;;;21.20;99.90;;;;;;5139175;27;20267;-79
2023/10/09 15:20:45;;;;;;;10.10;9.80;;;21.30;99.90;;;;;;5145339;27;20251;-78
2023/10/09 15:23:12;;;;;;;10.10;9.80;;;21.20;99.90;;;;;;5145282;27;20289;-78
2023/10/09 15:25:42;;;;;;;9.75;9.45;;;21.20;99.90;;;;;;5145234;27;20220;-78
2023/10/09 15:28:10;;;;;;;9.90;9.60;;;21.30;99.90;;;;;;5146319;27;20231;-79
2023/10/09 15:30:38;;;;;;;9.90;9.60;;;21.30;99.90;;;;;;5146676;27;20234;-78
2023/10/09 15:33:08;;;;;;;9.80;9.50;;;21.30;99.90;;;;;;5136989;27;20697;-78
2023/10/09 15:35:35;;;;;;;9.82;9.52;;;21.40;99.90;;;;;;5145657;27;20292;-79
2023/10/09 15:38:03;;;;;;;9.77;9.48;;;21.40;99.90;;;;;;5146045;27;20308;-80
2023/10/09 15:40:34;;;;;;;9.80;9.50;;;21.40;99.90;;;;;;5146689;27;20228;-79
2023/10/09 15:43:04;;;;;;;9.48;9.18;;;21.40;99.90;;;;;;5144858;27;20254;-79
2023/10/09 15:45:32;;;;;;;9.88;9.57;;;21.40;99.90;;;;;;5145310;27;20215;-79
2023/10/09 15:48:04;;;;;;;10.18;9.88;;;21.40;99.90;;;;;;5145924;27;20236;-81
2023/10/09 15:50:34;;;;;;;9.70;9.40;;;21.50;99.90;;;;;;5148704;27;20236;-80
2023/10/09 15:53:02;;;;;;;9.60;9.30;;;21.50;99.90;;;;;;5149710;27;20232;-81
2023/10/09 15:55:29;;;;;;;9.70;9.40;;;21.40;99.90;;;;;;5150352;27;20224;-80
2023/10/09 15:57:59;;;;;;;9.60;9.30;;;21.40;99.90;;;;;;5148942;27;20240;-81
2023/10/09 16:00:28;;;;;;;9.68;9.38;;;21.20;99.90;;;;;;5155237;27;20230;-80
2023/10/09 16:02:57;;;;;;;9.70;9.40;;;21.10;99.90;;;;;;5151407;27;20289;-81
2023/10/09 16:05:26;;;;;;;9.70;9.40;;;21.10;99.90;;;;;;5151397;27;20279;-80
2023/10/09 16:08:00;;;;;;;9.57;9.27;;;21.00;99.90;;;;;;5150764;27;20258;-80
2023/10/09 16:10:27;;;;;;;9.60;9.30;;;20.80;99.90;;;;;;5151825;27;20292;-80
2023/10/09 16:12:57;;;;;;;9.45;9.15;;;20.80;99.90;;;;;;5150039;27;20288;-81
2023/10/09 16:15:27;;;;;;;9.50;9.20;;;20.80;99.90;;;;;;5150578;27;20238;-81
2023/10/09 16:18:06;;;;;;;9.75;9.45;;;20.70;99.90;;;;;;5148381;27;20231;-80
2023/10/09 16:20:33;;;;;;;9.50;9.20;;;20.70;99.90;;;;;;5148524;27;20234;-81
2023/10/09 16:23:04;;;;;;;9.80;9.50;;;20.70;99.90;;;;;;5148592;27;20228;-81
2023/10/09 16:25:33;;;;;;;10.10;9.80;;;20.60;99.90;;;;;;5149041;27;20212;-81
2023/10/09 16:28:03;;;;;;;10.05;9.75;;;20.60;99.90;;;;;;5148907;27;20228;-81
2023/10/09 16:30:30;;;;;;;9.93;9.63;;;20.50;99.90;;;;;;5148718;27;20326;-81
2023/10/09 16:33:00;;;;;;;10.13;9.82;;;20.50;99.90;;;;;;5148251;27;20232;-81
2023/10/09 16:41:01;;;;;;;9.60;9.30;;;20.30;99.90;;;;;;5149681;27;20263;-81
2023/10/09 16:43:28;;;;;;;9.85;9.55;;;20.20;99.90;;;;;;5150332;27;20232;-80
2023/10/09 16:46:08;;;;;;;9.75;9.45;;;20.20;99.90;;;;;;5149860;27;20235;-80
2023/10/09 16:51:21;;;;;;;9.00;8.80;;;20.10;99.90;;;;;;5147778;27;20287;-80
2023/10/09 16:53:52;;;;;;;9.18;8.88;;;20.00;99.90;;;;;;5147994;27;20216;-80